Time;durP1;ratioP1;P1;durP2;ratioP2;P2;SDS_P1;SDS_P2;PMS_P1;PMS_P2;Temp;Humidity;BMP_temperature;BMP_pressure;BME280_temperature;BME280_humidity;BME280_pressure;Samples;Min_cycle;Max_cycle;Signal;HPM_P1;HPM_P2
2023/07/01 00:02:12;;;;;;;55.65;30.35;;;;;;;17.88;100.00;93920.16;5074828;28;20039;-82
2023/07/01 00:04:40;;;;;;;53.60;30.10;;;;;;;17.98;100.00;93924.28;5074466;28;20349;-81
2023/07/01 00:07:06;;;;;;;52.65;30.13;;;;;;;18.06;100.00;93924.22;5075221;28;20024;-81
2023/07/01 00:09:32;;;;;;;50.25;29.08;;;;;;;18.15;100.00;93918.09;5075579;28;20031;-81
2023/07/01 00:11:57;;;;;;;50.72;28.17;;;;;;;18.20;100.00;93907.25;5081372;28;20436;-82
2023/07/01 00:14:22;;;;;;;51.60;28.63;;;;;;;18.23;100.00;93904.75;5094487;28;20032;-82
2023/07/01 00:16:48;;;;;;;54.83;30.65;;;;;;;17.69;100.00;93908.13;5094171;28;20467;-81
2023/07/01 00:19:13;;;;;;;61.92;30.77;;;;;;;16.91;100.00;93904.81;5094470;28;20031;-81
2023/07/01 00:21:39;;;;;;;67.55;31.73;;;;;;;16.76;100.00;93928.06;5094278;28;20024;-81
2023/07/01 00:24:05;;;;;;;69.18;32.35;;;;;;;16.58;100.00;93921.28;5094237;28;20027;-81
2023/07/01 00:26:30;;;;;;;71.03;34.22;;;;;;;16.69;100.00;93933.06;5077736;28;20715;-81
2023/07/01 00:28:55;;;;;;;62.35;32.03;;;;;;;17.09;100.00;93934.66;5091295;28;20024;-81
2023/07/01 00:31:21;;;;;;;68.68;33.92;;;;;;;17.07;100.00;93923.63;5086524;28;20043;-81
2023/07/01 00:33:46;;;;;;;70.78;36.97;;;;;;;17.34;100.00;93922.38;5078605;28;20024;-81
2023/07/01 00:36:12;;;;;;;77.90;39.75;;;;;;;17.09;100.00;93924.84;5068414;28;20120;-81
2023/07/01 00:38:37;;;;;;;88.57;41.63;;;;;;;16.89;100.00;93936.09;5083052;28;20088;-81
2023/07/01 00:41:03;;;;;;;94.10;41.03;;;;;;;16.54;100.00;93943.06;5077957;28;20028;-81
2023/07/01 00:43:28;;;;;;;87.20;40.78;;;;;;;16.65;100.00;93942.75;5074373;28;20028;-82
2023/07/01 00:45:53;;;;;;;74.20;39.10;;;;;;;17.04;100.00;93934.84;5073519;28;20449;-82
2023/07/01 00:48:24;;;;;;;70.13;36.33;;;;;;;17.23;100.00;93935.19;5074698;28;20029;-81
2023/07/01 00:50:50;;;;;;;86.97;39.28;;;;;;;16.76;100.00;93937.88;5074856;28;20031;-81
2023/07/01 00:53:16;;;;;;;67.53;35.65;;;;;;;16.99;100.00;93948.19;5073834;28;20107;-81
2023/07/01 00:55:42;;;;;;;75.03;37.40;;;;;;;17.21;100.00;93940.03;5073696;28;20024;-81
2023/07/01 00:58:07;;;;;;;70.63;36.85;;;;;;;16.78;100.00;93931.16;5078383;28;20050;-81
2023/07/01 01:00:32;;;;;;;59.38;31.23;;;;;;;17.35;100.00;93926.56;5082674;28;20032;-81
2023/07/01 01:03:15;;;;;;;56.03;27.73;;;;;;;17.58;100.00;93915.69;5077053;28;20024;-82
2023/07/01 01:05:47;;;;;;;59.45;31.00;;;;;;;17.21;100.00;93915.44;5095034;28;20431;-81
2023/07/01 01:08:19;;;;;;;55.70;28.25;;;;;;;17.57;100.00;93921.28;5093609;28;20428;-81
2023/07/01 01:10:47;;;;;;;67.10;33.83;;;;;;;17.29;100.00;93914.63;5077397;28;20036;-81
2023/07/01 01:13:13;;;;;;;59.63;31.58;;;;;;;17.21;100.00;93918.88;5093995;28;20357;-81
2023/07/01 01:15:45;;;;;;;56.25;30.90;;;;;;;17.48;100.00;93919.50;5077327;28;20026;-82
2023/07/01 01:18:11;;;;;;;57.83;31.65;;;;;;;17.72;100.00;93914.66;5076837;28;20082;-81
2023/07/01 01:20:38;;;;;;;57.10;29.65;;;;;;;17.89;100.00;93908.44;5093847;28;20047;-81
2023/07/01 01:23:08;;;;;;;50.70;28.50;;;;;;;17.93;100.00;93915.44;5077206;28;20051;-81
2023/07/01 01:25:46;;;;;;;55.55;30.73;;;;;;;18.07;100.00;93912.53;5093761;28;20047;-81
2023/07/01 01:28:12;;;;;;;61.85;30.48;;;;;;;18.10;100.00;93913.75;5076585;28;20075;-81
2023/07/01 01:30:38;;;;;;;55.30;30.00;;;;;;;18.00;100.00;93914.88;5093841;28;20114;-81
2023/07/01 01:33:03;;;;;;;156.77;35.78;;;;;;;17.23;100.00;93907.97;5093653;28;20032;-81
2023/07/01 01:35:29;;;;;;;60.17;31.65;;;;;;;17.77;100.00;93906.50;5093756;28;20066;-81
2023/07/01 01:38:00;;;;;;;62.47;32.00;;;;;;;17.78;100.00;93900.88;5093101;28;20102;-81
2023/07/01 01:40:37;;;;;;;63.33;32.00;;;;;;;17.73;100.00;93897.66;5093761;28;20122;-81
2023/07/01 01:43:13;;;;;;;65.50;32.60;;;;;;;17.55;100.00;93897.78;5093833;28;20028;-81
2023/07/01 01:45:39;;;;;;;62.60;32.08;;;;;;;17.85;100.00;93902.22;5076761;28;20023;-81
2023/07/01 01:48:05;;;;;;;62.13;31.67;;;;;;;17.92;100.00;93892.66;5093124;28;20471;-81
2023/07/01 01:50:32;;;;;;;57.67;30.58;;;;;;;17.88;100.00;93891.75;5076788;28;20032;-81
2023/07/01 01:52:58;;;;;;;59.20;31.67;;;;;;;17.88;100.00;93891.75;5095191;28;20020;-81
2023/07/01 01:55:24;;;;;;;61.03;31.95;;;;;;;17.94;100.00;93897.63;5097157;28;20023;-81
2023/07/01 01:57:49;;;;;;;58.22;32.33;;;;;;;17.95;100.00;93888.59;5096716;28;20024;-81
2023/07/01 02:00:15;;;;;;;60.42;32.58;;;;;;;17.97;100.00;93890.91;5097158;28;20028;-81
2023/07/01 02:02:40;;;;;;;62.38;32.10;;;;;;;17.64;100.00;93893.19;5080313;28;20028;-81
2023/07/01 02:05:06;;;;;;;57.45;30.13;;;;;;;17.74;100.00;93893.91;5096842;28;20442;-81
2023/07/01 02:07:31;;;;;;;68.70;34.75;;;;;;;17.30;100.00;93889.69;5079710;28;20329;-81
2023/07/01 02:09:57;;;;;;;64.28;32.55;;;;;;;17.58;100.00;93889.19;5096760;28;20020;-81
2023/07/01 02:12:22;;;;;;;62.03;31.58;;;;;;;17.74;100.00;93894.69;5098069;28;20440;-81
2023/07/01 02:14:48;;;;;;;58.50;30.35;;;;;;;17.90;100.00;93891.44;5096866;28;20024;-82
2023/07/01 02:17:13;;;;;;;54.60;30.77;;;;;;;17.91;100.00;93885.03;5096388;28;20026;-81
2023/07/01 02:19:39;;;;;;;53.92;28.58;;;;;;;17.98;100.00;93895.88;5096706;28;20024;-82
2023/07/01 02:22:04;;;;;;;55.40;29.48;;;;;;;17.76;100.00;93892.50;5096516;28;20075;-81
2023/07/01 02:24:30;;;;;;;54.92;28.00;;;;;;;17.92;100.00;93892.66;5096524;28;20554;-82
2023/07/01 02:26:55;;;;;;;54.38;29.38;;;;;;;17.82;100.00;93895.72;5096431;28;20038;-81
2023/07/01 02:29:20;;;;;;;58.38;29.70;;;;;;;17.56;100.00;93899.34;5097567;28;20574;-81
2023/07/01 02:31:46;;;;;;;52.50;28.08;;;;;;;17.84;100.00;93898.03;5096463;28;20031;-82
2023/07/01 02:34:11;;;;;;;52.15;28.63;;;;;;;17.21;100.00;93896.91;5096351;28;20024;-81
2023/07/01 02:36:40;;;;;;;50.90;28.45;;;;;;;17.59;100.00;93900.56;5095996;28;20031;-82
2023/07/01 02:39:06;;;;;;;44.13;25.27;;;;;;;17.73;100.00;93905.59;5096427;28;20023;-81
2023/07/01 02:41:31;;;;;;;44.45;24.60;;;;;;;17.78;100.00;93906.19;5096256;28;20119;-81
2023/07/01 02:43:57;;;;;;;42.95;23.88;;;;;;;17.82;100.00;93903.66;5096475;28;20035;-82
2023/07/01 02:46:22;;;;;;;51.40;26.63;;;;;;;17.19;100.00;93907.81;5096025;28;20425;-82
2023/07/01 02:48:48;;;;;;;48.95;26.15;;;;;;;16.88;100.00;93908.88;5095834;28;20045;-82
2023/07/01 02:51:13;;;;;;;63.47;30.00;;;;;;;16.59;100.00;93910.41;5096093;28;20024;-82
2023/07/01 02:53:39;;;;;;;47.15;27.58;;;;;;;17.03;100.00;93914.78;5095897;28;20047;-81
2023/07/01 02:56:04;;;;;;;56.22;28.08;;;;;;;17.10;100.00;93904.44;5095919;28;20027;-82
2023/07/01 02:58:30;;;;;;;50.53;24.77;;;;;;;17.13;100.00;93906.44;5078814;28;20518;-81
2023/07/01 03:00:55;;;;;;;44.90;25.50;;;;;;;17.33;100.00;93897.00;5097157;28;20345;-81
2023/07/01 03:03:20;;;;;;;41.38;24.30;;;;;;;17.53;100.00;93892.81;5095437;28;20042;-82
2023/07/01 03:05:46;;;;;;;42.53;24.45;;;;;;;17.54;100.00;93893.59;5078522;28;20437;-81
2023/07/01 03:08:11;;;;;;;38.17;22.50;;;;;;;17.62;100.00;93882.16;5095370;28;20119;-81
2023/07/01 03:10:37;;;;;;;38.40;22.17;;;;;;;17.56;100.00;93886.09;5095732;28;20039;-81
2023/07/01 03:13:02;;;;;;;34.00;19.23;;;;;;;17.61;100.00;93880.59;5090675;28;20038;-81
2023/07/01 03:15:27;;;;;;;32.55;19.35;;;;;;;17.59;100.00;93876.75;5062121;28;20035;-81
2023/07/01 03:17:53;;;;;;;33.10;17.45;;;;;;;17.65;100.00;93876.22;5079757;28;20434;-81
2023/07/01 03:20:25;;;;;;;34.15;19.58;;;;;;;17.43;100.00;93879.97;5088969;28;20042;-81
2023/07/01 03:22:56;;;;;;;32.03;17.40;;;;;;;17.63;100.00;93882.94;5092458;28;20031;-81
2023/07/01 03:25:22;;;;;;;31.08;18.05;;;;;;;17.70;100.00;93879.75;5095060;28;20352;-81
2023/07/01 03:27:49;;;;;;;35.45;18.58;;;;;;;17.52;100.00;93880.66;5094672;28;20027;-81
2023/07/01 03:30:16;;;;;;;41.90;21.60;;;;;;;17.74;100.00;93870.06;5094410;28;20421;-81
2023/07/01 03:32:46;;;;;;;41.67;22.55;;;;;;;17.69;100.00;93867.63;5077855;28;20031;-82
2023/07/01 03:35:13;;;;;;;36.75;21.48;;;;;;;17.70;100.00;93869.16;5095097;28;20039;-82
2023/07/01 03:37:40;;;;;;;41.47;23.60;;;;;;;17.36;100.00;93871.75;5095872;28;20077;-81
2023/07/01 03:40:13;;;;;;;46.67;26.38;;;;;;;17.31;100.00;93871.94;5095198;28;20738;-81
2023/07/01 03:42:39;;;;;;;42.65;23.35;;;;;;;17.32;100.00;93868.19;5095044;28;20032;-82
2023/07/01 03:45:07;;;;;;;52.28;26.00;;;;;;;17.46;100.00;93874.03;5094960;28;20036;-81
2023/07/01 03:47:34;;;;;;;53.25;27.40;;;;;;;16.98;100.00;93864.63;5094976;28;20449;-81
2023/07/01 03:49:59;;;;;;;77.07;26.42;;;;;;;17.01;100.00;93870.09;5094844;28;20093;-81
2023/07/01 03:52:25;;;;;;;98.53;30.45;;;;;;;16.82;100.00;93879.19;5078117;28;20036;-81
2023/07/01 03:54:50;;;;;;;90.07;30.17;;;;;;;16.85;100.00;93880.41;5096067;28;20077;-81
2023/07/01 03:57:16;;;;;;;49.50;26.95;;;;;;;17.09;100.00;93879.06;5077328;28;20032;-81
2023/07/01 03:59:41;;;;;;;56.97;27.83;;;;;;;16.93;100.00;93881.47;5095112;28;20322;-81
2023/07/01 04:02:06;;;;;;;103.40;29.88;;;;;;;17.01;100.00;93874.63;5094902;28;20035;-81
2023/07/01 04:04:32;;;;;;;77.32;28.88;;;;;;;16.63;100.00;93876.13;5093287;28;20086;-81
2023/07/01 04:06:57;;;;;;;48.33;26.60;;;;;;;16.99;100.00;93867.00;5093898;28;20038;-81
2023/07/01 04:09:23;;;;;;;61.97;30.33;;;;;;;16.76;100.00;93869.09;5077878;28;20024;-81
2023/07/01 04:11:48;;;;;;;55.92;28.90;;;;;;;16.65;100.00;93863.41;5094347;28;20396;-81
2023/07/01 04:14:15;;;;;;;63.88;28.80;;;;;;;16.79;100.00;93863.16;5077716;28;20035;-81
2023/07/01 04:16:43;;;;;;;180.95;31.35;;;;;;;16.62;100.00;93864.00;5093748;28;20030;-81
2023/07/01 04:19:08;;;;;;;53.03;27.65;;;;;;;16.90;100.00;93859.06;5094442;28;20081;-81
2023/07/01 04:21:34;;;;;;;51.35;27.23;;;;;;;16.83;100.00;93861.44;5094537;28;20068;-81
2023/07/01 04:24:03;;;;;;;52.95;25.88;;;;;;;17.12;100.00;93861.78;5077607;28;20152;-81
2023/07/01 04:26:29;;;;;;;48.80;26.20;;;;;;;17.21;100.00;93846.59;5094330;28;20349;-81
2023/07/01 04:28:55;;;;;;;41.15;23.77;;;;;;;17.17;100.00;93861.59;5093993;28;20039;-81
2023/07/01 04:31:21;;;;;;;42.40;24.95;;;;;;;17.13;100.00;93860.69;5094428;28;20429;-81
2023/07/01 04:33:46;;;;;;;41.60;23.67;;;;;;;17.23;100.00;93858.44;5077413;28;20028;-81
2023/07/01 04:36:11;;;;;;;47.20;25.50;;;;;;;16.88;100.00;93850.69;5094146;28;20065;-81
2023/07/01 04:38:37;;;;;;;43.55;23.38;;;;;;;17.18;100.00;93857.84;5093681;28;20421;-81
2023/07/01 04:41:03;;;;;;;73.93;26.70;;;;;;;17.06;100.00;93861.19;5077634;28;20027;-81
2023/07/01 04:43:29;;;;;;;51.70;24.55;;;;;;;17.34;100.00;93861.47;5094211;28;20035;-81
2023/07/01 04:45:54;;;;;;;75.20;24.23;;;;;;;17.42;100.00;93867.03;5093882;28;20024;-81
2023/07/01 04:48:20;;;;;;;50.00;24.38;;;;;;;17.26;100.00;93867.63;5095012;28;20052;-81
2023/07/01 04:50:45;;;;;;;37.08;20.58;;;;;;;17.76;100.00;93873.16;5077333;28;20039;-81
2023/07/01 04:53:10;;;;;;;39.63;22.83;;;;;;;17.94;100.00;93871.13;5094024;28;20398;-81
2023/07/01 04:55:36;;;;;;;39.97;21.48;;;;;;;18.15;100.00;93863.16;5093956;28;20032;-81
2023/07/01 04:58:01;;;;;;;37.70;21.40;;;;;;;18.35;100.00;93863.41;5077069;28;20051;-81
2023/07/01 05:00:27;;;;;;;34.95;20.08;;;;;;;18.50;100.00;93856.72;5094065;28;20106;-81
2023/07/01 05:02:53;;;;;;;34.33;19.27;;;;;;;18.49;100.00;93855.19;5094032;28;20028;-81
2023/07/01 05:05:18;;;;;;;32.40;18.52;;;;;;;18.67;100.00;93866.38;5093931;28;20119;-81
2023/07/01 05:07:43;;;;;;;28.27;19.30;;;;;;;18.57;100.00;93861.47;5093555;28;20437;-81
2023/07/01 05:10:09;;;;;;;32.67;19.60;;;;;;;18.31;100.00;93865.19;5094010;28;20028;-81
2023/07/01 05:12:34;;;;;;;33.85;20.30;;;;;;;18.68;100.00;93875.06;5094974;28;20376;-81
2023/07/01 05:15:00;;;;;;;30.27;19.83;;;;;;;18.41;100.00;93872.72;5077196;28;20028;-81
2023/07/01 05:17:25;;;;;;;34.63;21.88;;;;;;;17.59;100.00;93880.16;5076444;28;20028;-81
2023/07/01 05:19:51;;;;;;;40.42;22.50;;;;;;;18.17;100.00;93879.53;5089230;28;20036;-81
2023/07/01 05:22:16;;;;;;;36.17;20.10;;;;;;;18.74;100.00;93868.47;5086537;28;20032;-81
2023/07/01 05:24:41;;;;;;;36.03;21.48;;;;;;;18.98;100.00;93859.72;5093407;28;20490;-81
2023/07/01 05:27:07;;;;;;;32.47;18.73;;;;;;;18.92;100.00;93866.34;5092915;28;20032;-81
2023/07/01 05:29:32;;;;;;;32.85;19.83;;;;;;;18.96;100.00;93859.28;5080648;28;20034;-81
2023/07/01 05:31:58;;;;;;;30.40;18.77;;;;;;;19.18;100.00;93873.22;5097338;28;20058;-81
2023/07/01 05:34:23;;;;;;;31.20;18.60;;;;;;;19.42;100.00;93866.34;5096962;28;20036;-81
2023/07/01 05:36:50;;;;;;;34.03;18.33;;;;;;;19.33;100.00;93858.50;5080282;28;20432;-81
2023/07/01 05:39:16;;;;;;;37.13;20.10;;;;;;;18.56;100.00;93859.94;5097542;28;20325;-81
2023/07/01 05:41:41;;;;;;;34.83;19.50;;;;;;;19.21;100.00;93860.06;5080702;28;20035;-81
2023/07/01 05:44:07;;;;;;;32.28;18.77;;;;;;;18.81;100.00;93862.59;5097786;28;20070;-81
2023/07/01 05:46:33;;;;;;;33.95;19.52;;;;;;;19.15;100.00;93876.56;5080539;28;20031;-81
2023/07/01 05:48:58;;;;;;;36.67;18.92;;;;;;;18.69;100.00;93872.09;5097320;28;20122;-81
2023/07/01 05:51:25;;;;;;;32.40;19.25;;;;;;;19.01;100.00;93876.88;5097124;28;20032;-81
2023/07/01 05:53:50;;;;;;;32.85;18.70;;;;;;;18.05;100.00;93876.81;5097197;28;20099;-81
2023/07/01 05:56:16;;;;;;;32.85;17.33;;;;;;;17.93;100.00;93874.88;5097251;28;20115;-81
2023/07/01 05:58:41;;;;;;;30.23;17.30;;;;;;;17.36;100.00;93877.84;5096862;28;20070;-83
2023/07/01 06:01:07;;;;;;;30.02;17.55;;;;;;;17.43;100.00;93873.88;5097407;28;20337;-83
2023/07/01 06:03:33;;;;;;;25.33;13.93;;;;;;;18.26;100.00;93873.38;5097202;28;20032;-83
2023/07/01 06:06:02;;;;;;;24.02;12.90;;;;;;;18.94;100.00;93867.56;5096861;28;20035;-84
2023/07/01 06:08:28;;;;;;;23.77;12.68;;;;;;;19.25;100.00;93876.09;5097921;28;20086;-84
2023/07/01 06:10:53;;;;;;;25.30;14.20;;;;;;;19.43;100.00;93868.63;5097038;28;20036;-84
2023/07/01 06:13:19;;;;;;;22.30;13.40;;;;;;;19.36;100.00;93871.84;5096938;28;20043;-84
2023/07/01 06:15:45;;;;;;;23.67;13.60;;;;;;;19.33;100.00;93880.50;5096747;28;20337;-84
2023/07/01 06:18:10;;;;;;;24.88;14.20;;;;;;;18.86;100.00;93887.03;5097554;28;20061;-84
2023/07/01 06:20:36;;;;;;;24.75;13.57;;;;;;;19.52;100.00;93895.09;5080038;28;20032;-84
2023/07/01 06:23:01;;;;;;;23.55;13.15;;;;;;;19.15;100.00;93895.13;5096620;28;20032;-84
2023/07/01 06:25:27;;;;;;;26.45;14.63;;;;;;;19.45;100.00;93893.00;5096507;28;20036;-85
2023/07/01 06:27:52;;;;;;;27.48;15.10;;;;;;;18.39;100.00;93898.81;5095897;28;20039;-85
2023/07/01 06:30:18;;;;;;;25.38;13.82;;;;;;;18.82;100.00;93898.66;5079887;28;20031;-84
2023/07/01 06:32:44;;;;;;;29.05;14.73;;;;;;;18.51;100.00;93903.34;5096495;28;20067;-84
2023/07/01 06:35:10;;;;;;;23.08;13.00;;;;;;;18.50;100.00;93901.81;5096317;28;20056;-84
2023/07/01 06:37:35;;;;;;;27.48;15.45;;;;;;;18.20;100.00;93910.66;5076946;28;20074;-85
2023/07/01 06:40:01;;;;;;;27.73;14.50;;;;;;;18.46;100.00;93920.25;5059542;28;20059;-85
2023/07/01 06:42:26;;;;;;;23.23;13.65;;;;;;;18.92;100.00;93906.16;5059826;28;20434;-85
2023/07/01 06:44:52;;;;;;;22.42;12.95;;;;;;;19.16;100.00;93912.63;5059333;28;20131;-83
2023/07/01 06:47:17;;;;;;;24.35;12.05;;;;;;;19.59;100.00;93915.78;5058643;28;20036;-83
2023/07/01 06:49:43;;;;;;;19.83;11.15;;;;;;;19.34;100.00;93905.94;5075941;28;20115;-82
2023/07/01 06:52:08;;;;;;;22.40;12.70;;;;;;;18.60;100.00;93912.00;5075901;28;20036;-81
2023/07/01 06:54:33;;;;;;;24.75;13.63;;;;;;;18.68;100.00;93912.22;5075849;28;20039;-82
2023/07/01 06:56:59;;;;;;;24.63;13.00;;;;;;;18.78;100.00;93909.16;5076859;28;20111;-82
2023/07/01 06:59:24;;;;;;;21.42;11.45;;;;;;;19.54;100.00;93913.34;5075729;28;20056;-82
2023/07/01 07:01:50;;;;;;;21.98;12.32;;;;;;;19.15;100.00;93911.06;5075591;28;20044;-83
2023/07/01 07:04:15;;;;;;;25.65;14.18;;;;;;;19.50;100.00;93900.72;5075545;28;20396;-83
2023/07/01 07:06:40;;;;;;;24.60;12.63;;;;;;;20.00;100.00;93905.16;5075838;28;20032;-82
2023/07/01 07:09:06;;;;;;;24.40;13.77;;;;;;;20.02;100.00;93905.59;5095688;28;20036;-82
2023/07/01 07:11:33;;;;;;;22.27;12.50;;;;;;;19.71;100.00;93904.34;5096842;28;20603;-82
2023/07/01 07:13:59;;;;;;;22.38;11.15;;;;;;;20.43;100.00;93903.63;5096962;28;20119;-82
2023/07/01 07:16:26;;;;;;;23.35;13.05;;;;;;;21.05;100.00;93905.16;5094998;28;20439;-82
2023/07/01 07:18:59;;;;;;;18.80;11.48;;;;;;;20.86;100.00;93909.25;5077498;28;20032;-82
2023/07/01 07:21:27;;;;;;;20.90;11.20;;;;;;;20.90;100.00;93910.13;5097216;28;20417;-82
2023/07/01 07:23:52;;;;;;;24.65;12.95;;;;;;;21.14;100.00;93902.28;5096593;28;20085;-82
2023/07/01 07:26:18;;;;;;;23.08;13.98;;;;;;;21.65;100.00;93901.50;5096416;28;20028;-83
2023/07/01 07:28:43;;;;;;;21.02;12.45;;;;;;;21.40;100.00;93906.28;5091627;28;20128;-82
2023/07/01 07:31:09;;;;;;;20.08;11.60;;;;;;;21.27;100.00;93906.41;5093068;28;20118;-82
2023/07/01 07:33:34;;;;;;;20.92;11.35;;;;;;;20.77;100.00;93911.31;5095231;28;20443;-82
2023/07/01 07:36:00;;;;;;;23.35;14.10;;;;;;;19.86;100.00;93911.59;5096332;28;20026;-82
2023/07/01 07:38:25;;;;;;;28.35;14.50;;;;;;;20.55;100.00;93912.66;5094878;28;20023;-82
2023/07/01 07:40:50;;;;;;;25.50;13.90;;;;;;;20.29;100.00;93919.22;5078414;28;20023;-82
2023/07/01 07:43:16;;;;;;;25.58;14.30;;;;;;;19.42;100.00;93917.56;5095160;28;20031;-81
2023/07/01 07:45:42;;;;;;;33.97;16.70;;;;;;;20.34;100.00;93916.31;5094815;28;20127;-81
2023/07/01 07:48:07;;;;;;;25.90;15.85;;;;;;;21.63;100.00;93918.94;5094551;28;20024;-82
2023/07/01 07:50:35;;;;;;;22.00;13.85;;;;;;;21.71;100.00;93918.75;5094525;28;20081;-82
2023/07/01 07:53:00;;;;;;;23.52;14.05;;;;;;;22.67;100.00;93912.22;5078409;28;20034;-82
2023/07/01 07:55:27;;;;;;;21.85;12.82;;;;;;;22.91;100.00;93910.28;5094839;28;20028;-82
2023/07/01 07:57:52;;;;;;;26.08;15.10;;;;;;;20.98;100.00;93911.06;5094379;28;20123;-81
2023/07/01 08:00:18;;;;;;;25.13;14.50;;;;;;;21.39;100.00;93910.06;5077746;28;20130;-82
2023/07/01 08:02:47;;;;;;;27.88;14.85;;;;;;;21.03;100.00;93924.13;5096361;28;20718;-82
2023/07/01 08:05:16;;;;;;;24.20;14.35;;;;;;;20.41;100.00;93915.72;5094627;28;20461;-81
2023/07/01 08:07:42;;;;;;;28.95;14.43;;;;;;;20.65;100.00;93912.13;5094129;28;20068;-82
2023/07/01 08:10:07;;;;;;;23.90;13.00;;;;;;;21.49;100.00;93909.53;5061540;28;20068;-82
2023/07/01 08:12:33;;;;;;;25.25;14.18;;;;;;;20.58;100.00;93914.63;5093044;28;20699;-82
2023/07/01 08:14:58;;;;;;;27.13;14.40;;;;;;;20.11;100.00;93910.75;5091319;28;20030;-82
2023/07/01 08:17:24;;;;;;;21.98;12.70;;;;;;;22.27;100.00;93910.72;5082215;28;20055;-81
2023/07/01 08:19:49;;;;;;;26.75;13.55;;;;;;;21.16;100.00;93911.50;5094389;28;20024;-81
2023/07/01 08:22:14;;;;;;;23.25;13.02;;;;;;;20.81;100.00;93909.53;5094916;28;20451;-82
2023/07/01 08:24:40;;;;;;;23.02;13.02;;;;;;;21.41;100.00;93905.94;5076306;28;20036;-82
2023/07/01 08:27:06;;;;;;;23.58;13.82;;;;;;;22.34;100.00;93900.16;5073725;28;20028;-82
2023/07/01 08:29:31;;;;;;;24.90;15.52;;;;;;;22.55;100.00;93904.38;5074083;28;20055;-82
2023/07/01 08:31:59;;;;;;;24.00;15.18;;;;;;;22.68;100.00;93897.75;5074090;28;20107;-82
2023/07/01 08:34:24;;;;;;;28.85;17.92;;;;;;;21.66;100.00;93899.59;5074256;28;20145;-82
2023/07/01 08:36:49;;;;;;;22.98;14.05;;;;;;;22.60;100.00;93898.72;5074913;28;20111;-82
2023/07/01 08:39:16;;;;;;;31.23;17.15;;;;;;;22.16;100.00;93891.81;5075232;28;20028;-82
2023/07/01 08:41:51;;;;;;;29.25;17.55;;;;;;;21.82;100.00;93892.34;5073997;28;20039;-82
2023/07/01 08:44:19;;;;;;;26.30;16.48;;;;;;;22.37;100.00;93893.34;5083830;28;20032;-82
2023/07/01 08:46:45;;;;;;;30.73;18.45;;;;;;;22.15;100.00;93892.94;5093504;28;20058;-81
2023/07/01 08:49:13;;;;;;;29.40;20.67;;;;;;;21.98;100.00;93892.25;5077865;28;20073;-82
2023/07/01 08:51:41;;;;;;;30.00;19.95;;;;;;;21.91;100.00;93888.69;5077451;28;20035;-82
2023/07/01 08:54:07;;;;;;;30.38;19.30;;;;;;;21.40;100.00;93890.31;5094191;28;20416;-82
2023/07/01 08:56:33;;;;;;;35.83;22.30;;;;;;;21.01;100.00;93890.94;5077623;28;20039;-82
2023/07/01 08:58:58;;;;;;;35.42;23.40;;;;;;;21.35;100.00;93894.00;5077182;28;20032;-81
2023/07/01 09:01:24;;;;;;;40.80;24.58;;;;;;;21.04;100.00;93880.38;5077351;28;20135;-82
2023/07/01 09:03:51;;;;;;;36.40;24.65;;;;;;;21.66;100.00;93879.06;5097383;28;20077;-82
2023/07/01 09:06:16;;;;;;;38.95;25.10;;;;;;;19.97;100.00;93887.22;5097820;28;20040;-82
2023/07/01 09:08:42;;;;;;;39.00;24.58;;;;;;;20.48;100.00;93884.00;5098584;28;20352;-81
2023/07/01 09:11:12;;;;;;;36.03;24.60;;;;;;;20.58;100.00;93885.38;5098036;28;20028;-82
2023/07/01 09:13:37;;;;;;;34.35;22.40;;;;;;;20.93;100.00;93881.28;5097318;28;20387;-81
2023/07/01 09:16:03;;;;;;;33.20;20.67;;;;;;;21.58;100.00;93882.66;5077581;28;20029;-82
2023/07/01 09:18:29;;;;;;;30.80;18.75;;;;;;;21.61;100.00;93882.00;5060337;28;20036;-82
2023/07/01 09:20:55;;;;;;;30.83;18.50;;;;;;;22.45;100.00;93887.78;5077558;28;20459;-82
2023/07/01 09:23:38;;;;;;;29.38;19.15;;;;;;;22.75;100.00;93883.72;5068368;28;20131;-82
2023/07/01 09:26:07;;;;;;;30.17;21.17;;;;;;;22.37;100.00;93880.75;5080447;28;20070;-82
2023/07/01 09:28:33;;;;;;;38.13;21.55;;;;;;;21.13;100.00;93874.13;5098736;28;20058;-82
2023/07/01 09:31:03;;;;;;;26.17;15.23;;;;;;;22.27;100.00;93871.44;5098017;28;20041;-82
2023/07/01 09:33:30;;;;;;;25.23;16.52;;;;;;;22.77;100.00;93867.34;5097524;28;20028;-82
2023/07/01 09:36:01;;;;;;;25.17;15.95;;;;;;;22.91;100.00;93875.56;5080760;28;20440;-82
2023/07/01 09:38:53;;;;;;;22.52;14.88;;;;;;;23.30;100.00;93867.41;5097032;28;20056;-82
2023/07/01 09:41:28;;;;;;;23.90;15.38;;;;;;;23.84;100.00;93859.28;5089603;28;20046;-82
2023/07/01 09:43:55;;;;;;;25.52;15.05;;;;;;;22.61;100.00;93867.47;5097727;28;20032;-82
2023/07/01 09:46:21;;;;;;;20.75;13.52;;;;;;;24.25;100.00;93863.19;5097149;28;20115;-83
2023/07/01 09:48:54;;;;;;;32.67;19.23;;;;;;;22.76;100.00;93863.13;5096903;28;20430;-82
2023/07/01 09:51:24;;;;;;;27.13;19.00;;;;;;;22.76;100.00;93863.91;5096853;28;20093;-82
2023/07/01 09:53:50;;;;;;;23.77;16.05;;;;;;;22.14;100.00;93862.06;5092960;28;20024;-82
2023/07/01 09:56:17;;;;;;;23.48;16.42;;;;;;;22.50;100.00;93848.59;5078291;28;20032;-82
2023/07/01 09:58:43;;;;;;;20.27;14.68;;;;;;;21.70;100.00;93857.81;5059824;28;20093;-81
2023/07/01 10:01:11;;;;;;;31.23;21.23;;;;;;;20.75;100.00;93852.31;5077895;28;20036;-82
2023/07/01 10:03:36;;;;;;;38.53;26.48;;;;;;;20.06;100.00;93858.59;5076638;28;20029;-82
2023/07/01 10:06:02;;;;;;;48.28;26.95;;;;;;;19.56;100.00;93861.41;5080567;28;20035;-82
2023/07/01 10:08:28;;;;;;;41.92;27.55;;;;;;;19.52;100.00;93865.88;5077372;28;20020;-81
2023/07/01 10:11:21;;;;;;;41.35;29.00;;;;;;;19.54;100.00;93863.66;5077794;28;20073;-82
2023/07/01 10:13:54;;;;;;;39.08;25.38;;;;;;;20.87;100.00;93851.47;5086639;28;20035;-82
2023/07/01 10:16:20;;;;;;;37.03;23.70;;;;;;;21.42;100.00;93854.19;5096679;28;20421;-81
2023/07/01 10:18:46;;;;;;;40.72;28.25;;;;;;;21.10;100.00;93862.25;5079763;28;20077;-82
2023/07/01 10:21:41;;;;;;;43.50;28.45;;;;;;;21.42;100.00;93864.84;5096651;28;20490;-82
2023/07/01 10:24:06;;;;;;;34.60;24.83;;;;;;;21.28;100.00;93856.53;5083345;28;20078;-83
2023/07/01 10:26:32;;;;;;;45.53;28.83;;;;;;;21.29;100.00;93858.09;5096365;28;20448;-82
2023/07/01 10:28:57;;;;;;;31.80;23.13;;;;;;;21.41;100.00;93862.53;5097240;28;20031;-81
2023/07/01 10:31:23;;;;;;;50.88;28.40;;;;;;;21.16;100.00;93860.88;5097579;28;20032;-82
2023/07/01 10:33:52;;;;;;;44.45;28.25;;;;;;;20.97;100.00;93850.94;5096625;28;20028;-82
2023/07/01 10:36:18;;;;;;;37.63;26.35;;;;;;;21.17;100.00;93853.66;5096264;28;20314;-81
2023/07/01 10:38:44;;;;;;;31.77;22.02;;;;;;;22.43;100.00;93851.88;5079115;28;20148;-82
2023/07/01 10:41:09;;;;;;;37.75;24.63;;;;;;;22.11;100.00;93857.44;5079507;28;20413;-81
2023/07/01 10:43:39;;;;;;;36.60;24.70;;;;;;;22.65;100.00;93849.63;5097486;28;20428;-81
2023/07/01 10:46:17;;;;;;;28.83;19.92;;;;;;;23.66;100.00;93856.41;5096091;28;20085;-82
2023/07/01 10:48:44;;;;;;;32.58;19.60;;;;;;;23.97;100.00;93854.44;5097191;28;20028;-81
2023/07/01 10:51:15;;;;;;;25.88;19.13;;;;;;;22.63;100.00;93841.94;5078857;28;20705;-82
2023/07/01 10:54:00;;;;;;;28.05;17.33;;;;;;;22.44;100.00;93840.88;5095794;28;20043;-81
2023/07/01 10:56:31;;;;;;;28.83;19.75;;;;;;;22.18;100.00;93841.56;5079225;28;20036;-82
2023/07/01 10:59:20;;;;;;;31.65;20.67;;;;;;;21.95;100.00;93847.63;5078902;28;20028;-82
2023/07/01 11:01:48;;;;;;;32.33;19.67;;;;;;;21.42;100.00;93845.44;5095113;28;20108;-82
2023/07/01 11:04:14;;;;;;;32.60;20.23;;;;;;;20.67;100.00;93845.28;5095800;28;20055;-82
2023/07/01 11:06:48;;;;;;;34.83;19.70;;;;;;;20.98;100.00;93852.50;5095352;28;20078;-81
2023/07/01 11:09:14;;;;;;;27.75;18.38;;;;;;;20.96;100.00;93851.28;5095808;28;20032;-82